createdAt,value
2023-01-17T00:00:15.635Z,21.49
2023-01-17T00:02:45.607Z,21.50
2023-01-17T00:05:32.725Z,21.48
2023-01-17T00:08:19.681Z,21.48
2023-01-17T00:10:52.091Z,21.47
2023-01-17T00:13:22.588Z,21.46
2023-01-17T00:15:53.535Z,21.46
2023-01-17T00:18:24.008Z,21.47
2023-01-17T00:21:22.641Z,21.46
2023-01-17T00:24:09.627Z,21.44
2023-01-17T00:26:54.437Z,21.43
2023-01-17T00:29:22.771Z,21.40
2023-01-17T00:31:51.177Z,21.40
2023-01-17T00:34:19.537Z,21.38
2023-01-17T00:36:48.173Z,21.33
2023-01-17T00:39:16.570Z,21.31
2023-01-17T00:41:46.918Z,21.29
2023-01-17T00:44:33.827Z,21.29
2023-01-17T00:47:20.879Z,21.28
2023-01-17T00:50:07.981Z,21.26
2023-01-17T00:52:55.489Z,21.23
2023-01-17T00:55:43.054Z,21.20
2023-01-17T00:58:31.821Z,21.17
2023-01-17T01:01:18.855Z,21.14
2023-01-17T01:04:05.987Z,21.12
2023-01-17T01:06:53.275Z,21.10
2023-01-17T01:09:40.122Z,21.08
2023-01-17T01:12:27.283Z,21.06
2023-01-17T01:15:15.860Z,21.04
2023-01-17T01:18:02.768Z,21.04
2023-01-17T01:20:49.680Z,21.04
2023-01-17T01:23:36.726Z,21.04
2023-01-17T01:26:23.955Z,21.03
2023-01-17T01:29:11.125Z,21.03
2023-01-17T01:31:59.358Z,21.02
2023-01-17T01:34:29.359Z,21.02
2023-01-17T01:36:59.274Z,21.04
2023-01-17T01:39:29.621Z,21.04
2023-01-17T01:42:00.106Z,21.05
2023-01-17T01:44:49.768Z,21.07
2023-01-17T01:47:31.604Z,21.08
2023-01-17T01:50:04.583Z,21.09
2023-01-17T01:52:40.238Z,21.11
2023-01-17T01:55:18.040Z,21.12
2023-01-17T01:57:55.339Z,21.12
2023-01-17T02:00:32.016Z,21.12
2023-01-17T02:03:12.450Z,21.14
2023-01-17T02:05:44.977Z,21.13
2023-01-17T02:08:19.648Z,21.12
2023-01-17T02:10:50.668Z,21.11
2023-01-17T02:13:23.949Z,21.10
2023-01-17T02:16:06.512Z,21.11
2023-01-17T02:18:53.663Z,21.11
2023-01-17T02:21:31.343Z,21.10
2023-01-17T02:24:58.927Z,21.09
2023-01-17T02:27:36.169Z,21.09
2023-01-17T02:30:34.836Z,21.07
2023-01-17T02:33:24.208Z,21.07
2023-01-17T02:36:08.421Z,21.07
2023-01-17T02:38:49.406Z,21.07
2023-01-17T02:41:24.848Z,21.08
2023-01-17T02:43:56.708Z,21.08
2023-01-17T02:46:29.357Z,21.09
2023-01-17T02:49:01.002Z,21.07
2023-01-17T02:51:50.322Z,21.07
2023-01-17T02:54:51.145Z,21.07
2023-01-17T02:57:45.166Z,21.04
2023-01-17T03:00:27.737Z,21.03
2023-01-17T03:03:16.848Z,21.03
2023-01-17T03:05:54.974Z,21.04
2023-01-17T03:08:26.833Z,21.05
2023-01-17T03:10:58.179Z,21.06
2023-01-17T03:13:28.564Z,21.06
2023-01-17T03:15:59.145Z,21.04
2023-01-17T03:18:31.574Z,21.03
2023-01-17T03:21:02.017Z,21.02
2023-01-17T03:23:32.614Z,21.00
2023-01-17T03:26:03.078Z,21.01
2023-01-17T03:28:32.993Z,20.99
2023-01-17T03:31:03.593Z,20.97
2023-01-17T03:33:35.231Z,20.94
2023-01-17T03:36:05.817Z,20.93
2023-01-17T03:38:37.883Z,20.92
2023-01-17T03:41:08.803Z,20.91
2023-01-17T03:43:39.234Z,20.92
2023-01-17T03:46:27.020Z,20.93
2023-01-17T03:48:58.742Z,20.92
2023-01-17T03:51:28.879Z,20.92
2023-01-17T03:53:59.452Z,20.89
2023-01-17T03:56:29.702Z,20.90
2023-01-17T03:58:59.731Z,20.90
2023-01-17T04:01:30.357Z,20.92
2023-01-17T04:04:03.030Z,20.91
2023-01-17T04:06:33.283Z,20.90
2023-01-17T04:09:03.626Z,20.90
2023-01-17T04:11:34.172Z,20.89
2023-01-17T04:14:04.644Z,20.86
2023-01-17T04:16:36.097Z,20.84
2023-01-17T04:19:08.657Z,20.84
2023-01-17T04:21:38.832Z,20.82
2023-01-17T04:24:10.961Z,20.81
2023-01-17T04:26:41.576Z,20.79
2023-01-17T04:29:12.094Z,20.77
2023-01-17T04:31:42.133Z,20.74
2023-01-17T04:34:14.833Z,20.72
2023-01-17T04:36:45.285Z,20.71
2023-01-17T04:39:15.901Z,20.71
2023-01-17T04:41:46.380Z,20.70
2023-01-17T04:44:17.298Z,20.66
2023-01-17T04:46:47.767Z,20.64
2023-01-17T04:49:20.373Z,20.62
2023-01-17T04:51:50.686Z,20.59
2023-01-17T04:54:21.329Z,20.56
2023-01-17T04:56:51.886Z,20.56
2023-01-17T04:59:22.129Z,20.57
2023-01-17T05:01:52.673Z,20.59
2023-01-17T05:04:25.606Z,20.60
2023-01-17T05:06:56.153Z,20.60
2023-01-17T05:09:25.978Z,20.61
2023-01-17T05:11:56.505Z,20.62
2023-01-17T05:14:26.969Z,20.62
2023-01-17T05:16:57.892Z,20.64
2023-01-17T05:19:30.591Z,20.65
2023-01-17T05:22:04.359Z,20.66
2023-01-17T05:24:34.900Z,20.68
2023-01-17T05:27:05.278Z,20.74
2023-01-17T05:29:35.827Z,20.81
2023-01-17T05:32:07.240Z,20.87
2023-01-17T05:34:39.203Z,20.92
2023-01-17T05:37:09.594Z,20.95
2023-01-17T05:39:40.394Z,20.95
2023-01-17T05:42:10.627Z,20.96
2023-01-17T05:44:41.109Z,20.95
2023-01-17T05:47:11.159Z,20.95
2023-01-17T05:49:45.154Z,20.95
2023-01-17T05:52:16.459Z,20.93
2023-01-17T05:54:48.073Z,20.93
2023-01-17T05:57:18.594Z,20.93
2023-01-17T05:59:49.287Z,20.95
2023-01-17T06:02:19.786Z,20.97
2023-01-17T06:04:51.947Z,20.99
2023-01-17T06:07:22.594Z,21.02
2023-01-17T06:09:53.098Z,21.07
2023-01-17T06:12:23.092Z,21.13
2023-01-17T06:14:53.716Z,21.25
2023-01-17T06:17:24.208Z,21.44
2023-01-17T06:19:56.119Z,21.66
2023-01-17T06:22:26.915Z,21.90
2023-01-17T06:24:57.513Z,22.15
2023-01-17T06:27:28.421Z,22.40
2023-01-17T06:29:59.000Z,22.64
2023-01-17T06:32:29.585Z,22.90
2023-01-17T06:35:02.047Z,23.15
2023-01-17T06:37:32.597Z,23.38
2023-01-17T06:40:03.118Z,23.63
2023-01-17T06:42:34.485Z,23.83
2023-01-17T06:45:04.208Z,24.05
2023-01-17T06:47:35.115Z,24.25
2023-01-17T06:50:08.657Z,24.44
2023-01-17T06:52:39.329Z,24.62
2023-01-17T06:55:11.850Z,24.80
2023-01-17T06:57:42.549Z,24.98
2023-01-17T07:00:15.010Z,25.16
2023-01-17T07:02:48.381Z,25.33
2023-01-17T07:05:21.874Z,25.53
2023-01-17T07:07:52.127Z,25.72
2023-01-17T07:10:24.717Z,25.92
2023-01-17T07:13:00.553Z,26.08
2023-01-17T07:15:31.346Z,26.25
2023-01-17T07:18:04.804Z,26.39
2023-01-17T07:20:39.226Z,26.53
2023-01-17T07:23:09.603Z,26.66
2023-01-17T07:25:40.181Z,26.80
2023-01-17T07:28:10.946Z,26.97
2023-01-17T07:30:41.555Z,27.16
2023-01-17T07:33:12.093Z,27.33
2023-01-17T07:35:44.066Z,27.49
2023-01-17T07:38:19.259Z,27.66
2023-01-17T07:40:50.098Z,27.80
2023-01-17T07:43:21.040Z,27.90
2023-01-17T07:45:54.227Z,28.01
2023-01-17T07:48:26.417Z,28.16
2023-01-17T07:51:01.573Z,28.33
2023-01-17T07:53:33.874Z,28.49
2023-01-17T07:56:06.453Z,28.59
2023-01-17T07:58:37.717Z,28.69
2023-01-17T08:01:11.390Z,28.81
2023-01-17T08:03:42.646Z,28.94
2023-01-17T08:06:23.273Z,29.04
2023-01-17T08:08:55.509Z,29.10
2023-01-17T08:11:25.972Z,29.19
2023-01-17T08:13:59.732Z,29.31
2023-01-17T08:16:31.075Z,29.43
2023-01-17T08:19:01.658Z,29.56
2023-01-17T08:21:34.819Z,29.73
2023-01-17T08:24:05.870Z,29.83
2023-01-17T08:26:36.429Z,29.93
2023-01-17T08:29:06.513Z,30.01
2023-01-17T08:31:38.091Z,30.06
2023-01-17T08:34:09.662Z,30.10
2023-01-17T08:36:45.511Z,30.16
2023-01-17T08:39:16.532Z,30.27
2023-01-17T08:41:46.692Z,30.38
2023-01-17T08:44:17.306Z,30.49
2023-01-17T08:46:47.304Z,30.61
2023-01-17T08:49:17.494Z,30.73
2023-01-17T08:51:50.479Z,30.89
2023-01-17T08:54:20.704Z,31.02
2023-01-17T08:56:53.249Z,31.11
2023-01-17T08:59:25.263Z,31.17
2023-01-17T09:01:58.622Z,31.15
2023-01-17T09:04:29.235Z,31.04
2023-01-17T09:07:01.528Z,30.87
2023-01-17T09:09:32.060Z,30.69
2023-01-17T09:12:02.967Z,30.51
2023-01-17T09:14:33.648Z,30.34
2023-01-17T09:17:06.181Z,30.20
2023-01-17T09:19:39.437Z,30.09
2023-01-17T09:22:11.550Z,29.97
2023-01-17T09:24:42.652Z,29.83
2023-01-17T09:27:13.112Z,29.73
2023-01-17T09:29:43.523Z,29.60
2023-01-17T09:32:13.757Z,29.51
2023-01-17T09:34:43.596Z,29.42
2023-01-17T09:37:18.435Z,29.30
2023-01-17T09:39:49.477Z,29.19
2023-01-17T09:42:32.025Z,29.07
2023-01-17T09:45:02.918Z,28.93
2023-01-17T09:47:44.386Z,28.84
2023-01-17T09:50:29.843Z,28.76
2023-01-17T09:53:06.692Z,28.70
2023-01-17T09:55:44.440Z,28.64
2023-01-17T09:58:22.002Z,28.58
2023-01-17T10:01:04.245Z,28.49
2023-01-17T10:03:52.297Z,28.40
2023-01-17T10:06:44.960Z,28.32
2023-01-17T10:09:54.827Z,28.23
2023-01-17T10:12:35.759Z,28.14
2023-01-17T10:15:40.072Z,28.06
2023-01-17T10:18:51.099Z,27.97
2023-01-17T10:21:36.055Z,27.88
2023-01-17T10:24:38.001Z,27.79
2023-01-17T10:27:23.630Z,27.71
2023-01-17T10:29:54.687Z,27.66
2023-01-17T10:32:31.886Z,27.61
2023-01-17T10:35:17.568Z,27.58
2023-01-17T10:37:48.986Z,27.52
2023-01-17T10:40:27.132Z,27.48
2023-01-17T10:43:05.122Z,27.43
2023-01-17T10:45:44.488Z,27.36
2023-01-17T10:48:23.310Z,27.31
2023-01-17T10:51:11.899Z,27.24
2023-01-17T10:54:02.006Z,27.16
2023-01-17T10:56:36.427Z,27.06
2023-01-17T10:59:30.623Z,26.95
2023-01-17T11:02:01.345Z,26.86
2023-01-17T11:04:38.203Z,26.79
2023-01-17T11:07:18.313Z,26.74
2023-01-17T11:09:50.725Z,26.69
2023-01-17T11:12:31.996Z,26.66
2023-01-17T11:15:24.053Z,26.61
2023-01-17T11:18:07.188Z,26.53
2023-01-17T11:20:44.992Z,26.48
2023-01-17T11:23:27.015Z,26.43
2023-01-17T11:26:04.094Z,26.39
2023-01-17T11:28:40.792Z,26.34
2023-01-17T11:31:31.296Z,26.31
2023-01-17T11:34:20.219Z,26.25
2023-01-17T11:36:51.597Z,26.20
2023-01-17T11:39:28.885Z,26.18
2023-01-17T11:41:59.882Z,26.13
2023-01-17T11:44:35.276Z,26.09
2023-01-17T11:47:19.687Z,26.07
2023-01-17T11:49:51.758Z,26.03
2023-01-17T11:52:27.730Z,26.02
2023-01-17T11:54:58.968Z,25.98
2023-01-17T11:57:33.819Z,25.93
2023-01-17T12:00:21.441Z,25.88
2023-01-17T12:03:26.106Z,25.81
2023-01-17T12:06:05.363Z,25.78
2023-01-17T12:08:57.141Z,25.76
2023-01-17T12:11:39.499Z,25.73
2023-01-17T12:14:27.011Z,25.70
2023-01-17T12:17:23.062Z,25.67
2023-01-17T12:20:06.345Z,25.63
2023-01-17T12:23:00.110Z,25.59
2023-01-17T12:26:04.171Z,25.55
2023-01-17T12:29:05.922Z,25.53
2023-01-17T12:31:47.031Z,25.51
2023-01-17T12:34:32.730Z,25.48
2023-01-17T12:37:12.301Z,25.44
2023-01-17T12:39:58.130Z,25.42
2023-01-17T12:42:34.886Z,25.38
2023-01-17T12:45:10.281Z,25.35
2023-01-17T12:47:48.901Z,25.35
2023-01-17T12:50:30.493Z,25.33
2023-01-17T12:53:17.200Z,25.31
2023-01-17T12:55:55.905Z,25.30
2023-01-17T12:58:29.781Z,25.27
2023-01-17T13:01:08.194Z,25.28
2023-01-17T13:03:57.654Z,25.25
2023-01-17T13:06:48.775Z,25.24
2023-01-17T13:09:24.668Z,25.22
2023-01-17T13:12:01.972Z,25.22
2023-01-17T13:14:33.611Z,25.20
2023-01-17T13:17:32.617Z,25.20
2023-01-17T13:20:15.953Z,25.16
2023-01-17T13:22:50.271Z,25.13
2023-01-17T13:25:41.693Z,25.10
2023-01-17T13:28:26.016Z,25.07
2023-01-17T13:31:29.399Z,25.04
2023-01-17T13:34:37.468Z,25.00
2023-01-17T13:37:39.711Z,24.95
2023-01-17T13:40:31.826Z,24.93
2023-01-17T13:43:04.292Z,24.91
2023-01-17T13:45:37.187Z,24.90
2023-01-17T13:48:32.596Z,24.87
2023-01-17T13:51:05.283Z,24.85
2023-01-17T13:53:57.654Z,24.83
2023-01-17T13:56:45.232Z,24.80
2023-01-17T13:59:36.575Z,24.77
2023-01-17T14:02:38.754Z,24.74
2023-01-17T14:05:16.440Z,24.71
2023-01-17T14:07:52.459Z,24.71
2023-01-17T14:10:36.153Z,24.70
2023-01-17T14:13:31.344Z,24.67
2023-01-17T14:16:02.404Z,24.67
2023-01-17T14:18:41.859Z,24.65
2023-01-17T14:21:23.936Z,24.63
2023-01-17T14:24:05.339Z,24.62
2023-01-17T14:26:59.382Z,24.59
2023-01-17T14:30:10.485Z,24.56
2023-01-17T14:32:42.000Z,24.53
2023-01-17T14:35:25.974Z,24.52
2023-01-17T14:37:58.086Z,24.51
2023-01-17T14:40:31.694Z,24.50
2023-01-17T14:43:07.386Z,24.49
2023-01-17T14:45:40.742Z,24.49
2023-01-17T14:48:20.680Z,24.48
2023-01-17T14:50:52.882Z,24.47
2023-01-17T14:53:28.521Z,24.45
2023-01-17T14:56:03.382Z,24.45
2023-01-17T14:58:37.296Z,24.44
2023-01-17T15:01:14.596Z,24.41
2023-01-17T15:03:50.849Z,24.40
2023-01-17T15:06:25.543Z,24.39
2023-01-17T15:08:56.025Z,24.36
2023-01-17T15:11:30.610Z,24.36
2023-01-17T15:14:06.143Z,24.34
2023-01-17T15:16:41.533Z,24.32
2023-01-17T15:19:17.396Z,24.30
2023-01-17T15:21:51.546Z,24.29
2023-01-17T15:24:28.083Z,24.26
2023-01-17T15:26:59.059Z,24.25
2023-01-17T15:29:33.920Z,24.22
2023-01-17T15:32:08.693Z,24.21
2023-01-17T15:34:41.458Z,24.18
2023-01-17T15:37:30.314Z,24.17
2023-01-17T15:40:18.479Z,24.15
2023-01-17T15:42:54.186Z,24.12
2023-01-17T15:45:31.387Z,24.12
2023-01-17T15:48:40.866Z,24.09
2023-01-17T15:51:13.873Z,24.08
2023-01-17T15:53:45.791Z,24.07
2023-01-17T15:56:32.323Z,24.04
2023-01-17T15:59:36.318Z,24.01
2023-01-17T16:02:07.176Z,23.97
2023-01-17T16:04:42.819Z,23.96
2023-01-17T16:07:23.883Z,23.94
2023-01-17T16:09:53.649Z,23.93
2023-01-17T16:12:23.755Z,23.91
2023-01-17T16:15:11.105Z,23.90
2023-01-17T16:17:46.763Z,23.87
2023-01-17T16:20:23.907Z,23.85
2023-01-17T16:22:54.978Z,23.83
2023-01-17T16:25:34.901Z,23.83
2023-01-17T16:28:05.776Z,23.80
2023-01-17T16:30:37.371Z,23.79
2023-01-17T16:33:07.733Z,23.78
2023-01-17T16:35:40.721Z,23.77
2023-01-17T16:38:15.967Z,23.76
2023-01-17T16:40:49.051Z,23.75
2023-01-17T16:43:22.371Z,23.74
2023-01-17T16:45:56.359Z,23.71
2023-01-17T16:48:36.692Z,23.71
2023-01-17T16:51:11.777Z,23.70
2023-01-17T16:53:41.981Z,23.68
2023-01-17T16:56:16.360Z,23.67
2023-01-17T16:58:47.629Z,23.66
2023-01-17T17:01:23.043Z,23.64
2023-01-17T17:03:54.764Z,23.62
2023-01-17T17:06:28.289Z,23.60
2023-01-17T17:08:59.077Z,23.59
2023-01-17T17:11:45.845Z,23.56
2023-01-17T17:14:17.601Z,23.55
2023-01-17T17:16:50.175Z,23.54
2023-01-17T17:19:22.459Z,23.52
2023-01-17T17:21:55.884Z,23.52
2023-01-17T17:24:26.933Z,23.50
2023-01-17T17:26:57.942Z,23.47
2023-01-17T17:29:30.058Z,23.46
2023-01-17T17:32:00.072Z,23.44
2023-01-17T17:34:32.388Z,23.44
2023-01-17T17:37:04.782Z,23.41
2023-01-17T17:39:35.190Z,23.40
2023-01-17T17:42:06.493Z,23.38
2023-01-17T17:44:37.638Z,23.37
2023-01-17T17:47:08.737Z,23.35
2023-01-17T17:49:39.459Z,23.34
2023-01-17T17:52:12.303Z,23.33
2023-01-17T17:54:47.398Z,23.31
2023-01-17T17:57:20.369Z,23.29
2023-01-17T17:59:50.941Z,23.26
2023-01-17T18:02:20.851Z,23.24
2023-01-17T18:04:51.084Z,23.23
2023-01-17T18:07:22.935Z,23.22
2023-01-17T18:09:54.828Z,23.21
2023-01-17T18:12:25.236Z,23.18
2023-01-17T18:14:56.049Z,23.17
2023-01-17T18:17:27.183Z,23.15
2023-01-17T18:19:57.518Z,23.15
2023-01-17T18:22:30.735Z,23.14
2023-01-17T18:25:02.105Z,23.11
2023-01-17T18:27:34.127Z,23.11
2023-01-17T18:30:06.459Z,23.10
2023-01-17T18:32:39.505Z,23.09
2023-01-17T18:35:10.623Z,23.08
2023-01-17T18:37:43.627Z,23.07
2023-01-17T18:40:16.641Z,23.06
2023-01-17T18:42:47.531Z,23.05
2023-01-17T18:45:18.389Z,23.03
2023-01-17T18:47:48.605Z,23.01
2023-01-17T18:50:19.349Z,23.00
2023-01-17T18:52:52.658Z,22.98
2023-01-17T18:55:23.446Z,22.97
2023-01-17T18:57:53.482Z,22.94
2023-01-17T19:00:25.580Z,22.94
2023-01-17T19:02:56.596Z,22.93
2023-01-17T19:05:27.731Z,22.91
2023-01-17T19:08:00.712Z,22.90
2023-01-17T19:10:30.734Z,22.88
2023-01-17T19:13:01.314Z,22.87
2023-01-17T19:15:33.750Z,22.86
2023-01-17T19:18:04.274Z,22.84
2023-01-17T19:20:37.745Z,22.83
2023-01-17T19:23:10.471Z,22.82
2023-01-17T19:25:43.767Z,22.79
2023-01-17T19:28:14.815Z,22.78
2023-01-17T19:30:45.317Z,22.76
2023-01-17T19:33:15.728Z,22.75
2023-01-17T19:35:45.840Z,22.74
2023-01-17T19:38:19.178Z,22.73
2023-01-17T19:40:49.596Z,22.71
2023-01-17T19:43:21.373Z,22.71
2023-01-17T19:46:01.152Z,22.70
2023-01-17T19:48:32.500Z,22.68
2023-01-17T19:51:08.716Z,22.66
2023-01-17T19:53:43.479Z,22.66
2023-01-17T19:56:19.350Z,22.62
2023-01-17T19:58:50.894Z,22.58
2023-01-17T20:01:25.610Z,22.56
2023-01-17T20:03:58.024Z,22.54
2023-01-17T20:06:32.065Z,22.53
2023-01-17T20:09:05.753Z,22.52
2023-01-17T20:11:37.747Z,22.51
2023-01-17T20:14:07.923Z,22.50
2023-01-17T20:16:39.540Z,22.49
2023-01-17T20:19:10.119Z,22.48
2023-01-17T20:21:41.534Z,22.46
2023-01-17T20:24:17.947Z,22.45
2023-01-17T20:26:59.527Z,22.44
2023-01-17T20:29:29.918Z,22.42
2023-01-17T20:32:00.863Z,22.41
2023-01-17T20:34:32.042Z,22.40
2023-01-17T20:37:20.238Z,22.39
2023-01-17T20:39:54.502Z,22.38
2023-01-17T20:42:24.837Z,22.35
2023-01-17T20:45:05.304Z,22.35
2023-01-17T20:47:42.204Z,22.32
2023-01-17T20:50:14.011Z,22.31
2023-01-17T20:52:45.199Z,22.29
2023-01-17T20:55:18.217Z,22.28
2023-01-17T20:57:58.280Z,22.26
2023-01-17T21:00:30.635Z,22.26
2023-01-17T21:03:01.104Z,22.24
2023-01-17T21:05:31.620Z,22.22
2023-01-17T21:08:04.229Z,22.21
2023-01-17T21:10:36.746Z,22.20
2023-01-17T21:13:06.657Z,22.19
2023-01-17T21:15:37.627Z,22.18
2023-01-17T21:18:08.498Z,22.16
2023-01-17T21:20:39.027Z,22.15
2023-01-17T21:23:09.837Z,22.14
2023-01-17T21:25:41.512Z,22.12
2023-01-17T21:28:12.277Z,22.11
2023-01-17T21:30:43.482Z,22.10
2023-01-17T21:33:13.624Z,22.09
2023-01-17T21:35:45.219Z,22.08
2023-01-17T21:38:16.475Z,22.07
2023-01-17T21:40:48.502Z,22.05
2023-01-17T21:43:21.216Z,22.03
2023-01-17T21:45:52.844Z,22.01
2023-01-17T21:48:23.472Z,22.00
2023-01-17T21:50:53.358Z,21.98
2023-01-17T21:53:23.874Z,21.96
2023-01-17T21:56:18.406Z,21.95
2023-01-17T21:58:54.117Z,21.91
2023-01-17T22:01:25.883Z,21.87
2023-01-17T22:03:59.109Z,21.87
2023-01-17T22:06:32.027Z,21.86
2023-01-17T22:09:02.573Z,21.85
2023-01-17T22:11:34.696Z,21.85
2023-01-17T22:14:07.901Z,21.83
2023-01-17T22:16:38.012Z,21.82
2023-01-17T22:19:08.765Z,21.81
2023-01-17T22:21:39.456Z,21.82
2023-01-17T22:24:12.076Z,21.81
2023-01-17T22:26:44.560Z,21.79
2023-01-17T22:29:18.756Z,21.78
2023-01-17T22:31:49.383Z,21.78
2023-01-17T22:34:19.700Z,21.77
2023-01-17T22:36:49.900Z,21.76
2023-01-17T22:39:20.213Z,21.76
2023-01-17T22:41:52.445Z,21.73
2023-01-17T22:44:22.770Z,21.70
2023-01-17T22:46:52.590Z,21.67
2023-01-17T22:49:23.885Z,21.66
2023-01-17T22:51:54.305Z,21.65
2023-01-17T22:54:25.000Z,21.64
2023-01-17T22:56:57.276Z,21.61
2023-01-17T22:59:27.796Z,21.60
2023-01-17T23:01:57.737Z,21.58
2023-01-17T23:04:28.790Z,21.58
2023-01-17T23:06:59.165Z,21.57
2023-01-17T23:09:29.215Z,21.56
2023-01-17T23:12:01.324Z,21.55
2023-01-17T23:14:54.821Z,21.54
2023-01-17T23:17:43.522Z,21.52
2023-01-17T23:20:15.359Z,21.50
2023-01-17T23:22:45.604Z,21.50
2023-01-17T23:25:16.582Z,21.48
2023-01-17T23:28:06.129Z,21.48
2023-01-17T23:30:41.940Z,21.47
2023-01-17T23:33:15.057Z,21.46
2023-01-17T23:35:47.404Z,21.45
2023-01-17T23:38:34.436Z,21.44
2023-01-17T23:41:24.304Z,21.43
2023-01-17T23:43:58.563Z,21.42
2023-01-17T23:46:30.422Z,21.41
2023-01-17T23:49:00.613Z,21.39
2023-01-17T23:51:32.338Z,21.38
2023-01-17T23:54:05.707Z,21.35
2023-01-17T23:56:35.843Z,21.35
2023-01-17T23:59:07.615Z,21.34
